Time;durP1;ratioP1;P1;durP2;ratioP2;P2;SDS_P1;SDS_P2;PMS_P1;PMS_P2;Temp;Humidity;BMP_temperature;BMP_pressure;BME280_temperature;BME280_humidity;BME280_pressure;Samples;Min_cycle;Max_cycle;Signal;HPM_P1;HPM_P2
2023/04/05 00:01:00;;;;;;;4.93;3.00;;;-0.10;96.60;;;;;;5073363;28;20197;-75
2023/04/05 00:03:25;;;;;;;6.70;3.10;;;-0.10;96.80;;;;;;5072860;28;20243;-76
2023/04/05 00:05:53;;;;;;;6.20;2.90;;;-0.10;97.10;;;;;;5073309;28;20424;-76
2023/04/05 00:08:25;;;;;;;11.27;3.27;;;-0.20;97.00;;;;;;5089255;28;20177;-74
2023/04/05 00:10:52;;;;;;;6.00;3.63;;;-0.10;97.40;;;;;;5089513;28;20463;-75
2023/04/05 00:13:17;;;;;;;6.80;2.87;;;-0.10;97.40;;;;;;5072197;28;20435;-76
2023/04/05 00:15:43;;;;;;;4.80;2.80;;;-0.10;97.00;;;;;;5072373;28;20891;-74
2023/04/05 00:18:20;;;;;;;5.30;3.40;;;-0.20;96.90;;;;;;5072092;28;20180;-74
2023/04/05 00:20:49;;;;;;;9.40;3.33;;;-0.20;97.00;;;;;;5069766;28;20181;-75
2023/04/05 00:23:16;;;;;;;8.23;3.17;;;-0.20;97.80;;;;;;5072109;28;20954;-76
2023/04/05 00:25:43;;;;;;;5.40;2.63;;;-0.20;97.70;;;;;;5073201;28;20500;-74
2023/04/05 00:28:09;;;;;;;6.10;2.73;;;-0.20;97.60;;;;;;5088700;28;20419;-74
2023/04/05 00:30:35;;;;;;;7.30;2.87;;;-0.20;97.60;;;;;;5072872;28;20466;-77
2023/04/05 00:33:00;;;;;;;4.70;2.70;;;-0.10;97.40;;;;;;5072266;28;20440;-73
2023/04/05 00:35:27;;;;;;;7.10;2.60;;;-0.10;97.50;;;;;;5073069;28;20256;-74
2023/04/05 00:37:52;;;;;;;3.90;2.53;;;-0.10;97.80;;;;;;5071551;28;20264;-74
2023/04/05 00:40:18;;;;;;;3.70;2.50;;;-0.20;97.40;;;;;;5071536;28;21053;-73
2023/04/05 00:42:44;;;;;;;5.30;2.83;;;-0.20;97.60;;;;;;5072396;28;20699;-74
2023/04/05 00:45:10;;;;;;;6.60;3.20;;;-0.20;97.50;;;;;;5073637;28;20207;-78
2023/04/05 00:47:36;;;;;;;9.63;3.33;;;-0.20;97.50;;;;;;5072682;28;20204;-76
2023/04/05 00:50:02;;;;;;;6.93;2.60;;;-0.20;97.60;;;;;;5071252;28;20185;-77
2023/04/05 00:52:29;;;;;;;8.00;2.87;;;-0.10;97.50;;;;;;5072401;28;20608;-75
2023/04/05 00:54:56;;;;;;;5.63;2.63;;;-0.20;97.30;;;;;;5069606;28;20792;-73
2023/04/05 00:57:23;;;;;;;4.73;2.70;;;-0.20;97.60;;;;;;5087701;28;20534;-75
2023/04/05 00:59:49;;;;;;;6.67;3.27;;;-0.20;97.80;;;;;;5071907;28;20520;-76
2023/04/05 01:02:30;;;;;;;4.47;2.43;;;-0.20;97.80;;;;;;5071180;28;20439;-76
2023/04/05 01:05:08;;;;;;;5.80;2.87;;;-0.30;98.00;;;;;;5074200;28;20444;-76
2023/04/05 01:07:41;;;;;;;3.73;2.80;;;-0.30;98.00;;;;;;5077227;28;20419;-74
2023/04/05 01:10:09;;;;;;;4.67;3.27;;;-0.20;97.90;;;;;;5080271;28;20973;-74
2023/04/05 01:12:37;;;;;;;4.03;2.40;;;-0.30;98.40;;;;;;5085753;28;20485;-79
2023/04/05 01:15:03;;;;;;;8.50;3.40;;;-0.20;98.10;;;;;;5095371;28;20422;-81
2023/04/05 01:17:35;;;;;;;6.23;3.30;;;-0.20;98.20;;;;;;5097558;28;20516;-80
2023/04/05 01:20:09;;;;;;;6.73;2.60;;;-0.20;98.30;;;;;;5096324;28;20473;-81
2023/04/05 01:23:05;;;;;;;5.97;3.13;;;-0.20;98.30;;;;;;5096706;28;20539;-79
2023/04/05 01:25:52;;;;;;;4.70;2.37;;;-0.20;98.30;;;;;;5090560;28;20522;-74
2023/04/05 01:28:33;;;;;;;4.23;2.70;;;-0.30;98.00;;;;;;5072429;28;20507;-74
2023/04/05 01:31:07;;;;;;;3.20;2.20;;;-0.20;97.90;;;;;;5070524;28;21066;-73
2023/04/05 01:33:43;;;;;;;10.00;3.40;;;-0.20;97.90;;;;;;5070639;28;20469;-77
2023/04/05 01:36:28;;;;;;;8.63;2.87;;;-0.20;97.70;;;;;;5070645;28;20430;-74
2023/04/05 01:38:54;;;;;;;8.40;2.90;;;-0.30;98.30;;;;;;5072087;28;20411;-77
2023/04/05 01:41:21;;;;;;;6.80;2.63;;;-0.40;98.50;;;;;;5072695;28;20440;-74
2023/04/05 01:43:46;;;;;;;4.33;2.53;;;-0.40;98.40;;;;;;5072240;28;20431;-74
2023/04/05 01:46:12;;;;;;;7.13;3.47;;;-0.40;98.50;;;;;;5089369;28;20937;-76
2023/04/05 01:48:38;;;;;;;10.73;3.40;;;-0.40;98.80;;;;;;5073748;28;20190;-74
2023/04/05 01:51:03;;;;;;;7.73;3.17;;;-0.40;98.70;;;;;;5074970;28;20222;-75
2023/04/05 01:53:29;;;;;;;13.43;3.53;;;-0.40;98.80;;;;;;5078881;28;20192;-74
2023/04/05 01:56:00;;;;;;;7.30;3.50;;;-0.40;98.70;;;;;;5082156;28;20205;-80
2023/04/05 01:58:26;;;;;;;11.47;2.60;;;-0.30;98.80;;;;;;5091809;28;20170;-80
2023/04/05 02:00:54;;;;;;;4.53;2.60;;;-0.30;98.80;;;;;;5095256;28;20470;-79
2023/04/05 02:03:20;;;;;;;7.93;3.43;;;-0.40;99.00;;;;;;5112580;28;20249;-79
2023/04/05 02:05:46;;;;;;;6.87;3.37;;;-0.40;99.00;;;;;;5094494;28;20453;-80
2023/04/05 02:08:13;;;;;;;8.70;3.13;;;-0.40;99.40;;;;;;5107275;28;20518;-74
2023/04/05 02:10:39;;;;;;;4.87;3.00;;;-0.50;99.60;;;;;;5070967;28;20307;-73
2023/04/05 02:13:05;;;;;;;4.60;2.97;;;-0.50;99.60;;;;;;5072209;28;20515;-74
2023/04/05 02:15:32;;;;;;;4.13;2.33;;;-0.60;99.60;;;;;;5072035;28;20518;-74
2023/04/05 02:18:01;;;;;;;7.27;2.83;;;-0.70;99.90;;;;;;5071224;28;20503;-74
2023/04/05 02:20:27;;;;;;;4.27;2.73;;;-0.70;99.90;;;;;;5070302;28;20415;-74
2023/04/05 02:22:53;;;;;;;4.00;2.17;;;-0.70;99.90;;;;;;5071740;28;20493;-74
2023/04/05 02:25:19;;;;;;;5.97;3.47;;;-0.70;99.90;;;;;;5071704;28;20421;-75
2023/04/05 02:27:46;;;;;;;5.53;2.50;;;-0.60;99.90;;;;;;5086776;28;20431;-75
2023/04/05 02:30:14;;;;;;;6.30;2.80;;;-0.60;99.90;;;;;;5068089;28;20440;-75
2023/04/05 02:32:47;;;;;;;3.80;2.63;;;-0.70;99.90;;;;;;5070476;28;20981;-76
2023/04/05 02:35:12;;;;;;;4.07;2.00;;;-0.70;99.90;;;;;;5069466;28;20503;-76
2023/04/05 02:37:38;;;;;;;3.07;2.20;;;-0.70;99.90;;;;;;5069435;28;20452;-75
2023/04/05 02:40:08;;;;;;;5.73;3.43;;;-0.80;99.90;;;;;;5070538;28;20423;-74
2023/04/05 02:42:35;;;;;;;5.07;2.30;;;-0.90;99.90;;;;;;5070532;28;20239;-74
2023/04/05 02:45:00;;;;;;;6.63;3.07;;;-0.90;99.90;;;;;;5068628;28;20412;-73
2023/04/05 02:47:26;;;;;;;5.53;2.63;;;-0.90;99.90;;;;;;5068678;28;20411;-75
2023/04/05 02:49:52;;;;;;;10.80;2.93;;;-0.90;99.90;;;;;;5067992;28;20480;-74
2023/04/05 02:52:17;;;;;;;4.50;3.00;;;-0.90;99.90;;;;;;5066286;28;20289;-77
2023/04/05 02:54:43;;;;;;;6.40;3.30;;;-0.90;99.90;;;;;;5069844;28;20178;-77
2023/04/05 02:57:10;;;;;;;6.90;4.20;;;-0.90;99.90;;;;;;5069454;28;20177;-73
2023/04/05 02:59:37;;;;;;;5.40;3.30;;;-0.90;99.90;;;;;;5069913;28;20197;-74
2023/04/05 03:02:06;;;;;;;8.70;3.13;;;-0.90;99.90;;;;;;5069008;28;20447;-74
2023/04/05 03:04:33;;;;;;;6.20;3.80;;;-1.00;99.90;;;;;;5070858;28;20423;-76
2023/04/05 03:07:01;;;;;;;11.80;5.90;;;-1.00;99.90;;;;;;5071057;28;20434;-74
2023/04/05 03:09:33;;;;;;;12.00;5.13;;;-1.00;99.90;;;;;;5069627;28;20494;-75
2023/04/05 03:12:02;;;;;;;9.90;3.70;;;-1.10;99.90;;;;;;5069004;28;20470;-75
2023/04/05 03:14:29;;;;;;;6.73;4.40;;;-1.20;99.90;;;;;;5070020;28;20487;-72
2023/04/05 03:16:55;;;;;;;4.37;3.40;;;-1.20;99.90;;;;;;5070710;28;20882;-75
2023/04/05 03:19:21;;;;;;;8.70;3.37;;;-1.20;99.90;;;;;;5070910;28;20427;-75
2023/04/05 03:21:47;;;;;;;5.30;2.87;;;-1.20;99.90;;;;;;5068336;28;20212;-75
2023/04/05 03:24:14;;;;;;;8.80;4.63;;;-1.20;99.90;;;;;;5073730;28;20455;-74
2023/04/05 03:26:47;;;;;;;7.17;3.50;;;-1.20;99.90;;;;;;5074099;28;20542;-75
2023/04/05 03:29:13;;;;;;;7.70;3.80;;;-1.20;99.90;;;;;;5073934;28;20890;-74
2023/04/05 03:31:39;;;;;;;11.00;4.77;;;-1.20;99.90;;;;;;5073304;28;20462;-74
2023/04/05 03:34:05;;;;;;;9.13;3.90;;;-1.30;99.90;;;;;;5075650;28;20180;-74
2023/04/05 03:36:40;;;;;;;10.50;4.10;;;-1.30;99.90;;;;;;5074758;28;20322;-76
2023/04/05 03:39:10;;;;;;;10.67;4.90;;;-1.30;99.90;;;;;;5073996;28;20168;-74
2023/04/05 03:41:36;;;;;;;9.63;5.30;;;-1.40;99.90;;;;;;5072351;28;20447;-76
2023/04/05 03:44:02;;;;;;;13.50;5.03;;;-1.40;99.90;;;;;;5073112;28;20423;-75
2023/04/05 03:46:28;;;;;;;6.90;3.90;;;-1.40;99.90;;;;;;5073895;28;20937;-74
2023/04/05 03:48:54;;;;;;;7.73;3.33;;;-1.40;99.90;;;;;;5074311;28;20796;-79
2023/04/05 03:51:20;;;;;;;10.97;5.17;;;-1.40;99.90;;;;;;5072269;28;20664;-73
2023/04/05 03:53:46;;;;;;;12.27;4.63;;;-1.40;99.90;;;;;;5073499;28;20518;-74
2023/04/05 03:56:11;;;;;;;10.87;4.17;;;-1.30;99.90;;;;;;5072352;28;20177;-77
2023/04/05 03:58:37;;;;;;;5.80;3.20;;;-1.50;99.90;;;;;;5072606;28;20664;-74
2023/04/05 04:01:03;;;;;;;5.43;3.33;;;-1.60;99.90;;;;;;5071269;28;20177;-75
2023/04/05 04:03:29;;;;;;;8.73;3.47;;;-1.60;99.90;;;;;;5067996;28;20207;-75
2023/04/05 04:05:55;;;;;;;5.63;2.87;;;-1.60;99.90;;;;;;5067020;28;20291;-74
2023/04/05 04:08:21;;;;;;;7.80;4.23;;;-1.60;99.90;;;;;;5070391;28;20429;-75
2023/04/05 04:10:48;;;;;;;3.87;2.40;;;-1.60;99.90;;;;;;5069843;28;20463;-74
2023/04/05 04:13:13;;;;;;;7.27;3.90;;;-1.60;99.90;;;;;;5069185;28;20431;-75
2023/04/05 04:15:39;;;;;;;6.03;3.20;;;-1.70;99.90;;;;;;5070928;28;20423;-74
2023/04/05 04:18:05;;;;;;;6.47;3.47;;;-1.80;99.90;;;;;;5068788;28;20188;-76
2023/04/05 04:20:30;;;;;;;7.20;3.60;;;-1.80;99.90;;;;;;5070237;28;20177;-74
2023/04/05 04:22:57;;;;;;;6.70;3.93;;;-1.80;99.90;;;;;;5070314;28;20193;-74
2023/04/05 04:25:25;;;;;;;7.80;3.30;;;-1.80;99.90;;;;;;5087021;28;20201;-74
2023/04/05 04:27:51;;;;;;;9.73;3.40;;;-1.80;99.90;;;;;;5070488;28;20420;-74
2023/04/05 04:30:21;;;;;;;8.00;3.47;;;-1.90;99.90;;;;;;5069888;28;20424;-74
2023/04/05 04:32:52;;;;;;;5.60;3.37;;;-2.00;99.90;;;;;;5068758;28;20458;-74
2023/04/05 04:35:19;;;;;;;7.20;3.70;;;-2.10;99.90;;;;;;5069751;28;20749;-76
2023/04/05 04:37:54;;;;;;;9.10;4.37;;;-2.10;99.90;;;;;;5070144;28;20424;-72
2023/04/05 04:40:21;;;;;;;9.33;4.10;;;-2.10;99.90;;;;;;5069720;28;20423;-75
2023/04/05 04:42:47;;;;;;;9.27;4.50;;;-2.10;99.90;;;;;;5069903;28;20447;-74
2023/04/05 04:45:18;;;;;;;13.33;4.17;;;-2.10;99.90;;;;;;5069390;28;20408;-74
2023/04/05 04:47:45;;;;;;;9.90;3.97;;;-2.20;99.90;;;;;;5068300;28;20416;-76
2023/04/05 04:50:12;;;;;;;5.63;3.50;;;-2.30;99.90;;;;;;5070122;28;20411;-74
2023/04/05 04:52:39;;;;;;;10.23;4.57;;;-2.30;99.90;;;;;;5068445;28;20524;-74
2023/04/05 04:55:07;;;;;;;10.67;3.97;;;-2.30;99.90;;;;;;5068010;28;20503;-75
2023/04/05 04:57:32;;;;;;;7.90;3.97;;;-2.40;99.90;;;;;;5068092;28;20527;-77
2023/04/05 04:59:58;;;;;;;8.27;3.90;;;-2.40;99.90;;;;;;5084186;28;21038;-73
2023/04/05 05:02:25;;;;;;;6.70;3.90;;;-2.40;99.90;;;;;;5067220;28;20284;-74
2023/04/05 05:04:50;;;;;;;7.07;4.00;;;-2.40;99.90;;;;;;5067319;28;20276;-74
2023/04/05 05:07:17;;;;;;;11.80;4.60;;;-2.40;99.90;;;;;;5068585;28;20550;-74
2023/04/05 05:09:43;;;;;;;8.63;3.90;;;-2.40;99.90;;;;;;5085290;28;20242;-78
2023/04/05 05:12:09;;;;;;;15.67;5.90;;;-2.50;99.90;;;;;;5083656;28;20471;-73
2023/04/05 05:14:34;;;;;;;12.83;5.67;;;-2.50;99.90;;;;;;5085080;28;20169;-74
2023/04/05 05:17:00;;;;;;;20.93;7.03;;;-2.50;99.90;;;;;;5067299;28;20169;-74
2023/04/05 05:19:26;;;;;;;12.10;5.60;;;-2.50;99.90;;;;;;5068925;28;20752;-74
2023/04/05 05:21:52;;;;;;;12.47;6.30;;;-2.40;99.90;;;;;;5067174;28;20691;-76
2023/04/05 05:24:18;;;;;;;13.93;6.40;;;-2.40;99.90;;;;;;5084498;28;20185;-72
2023/04/05 05:26:44;;;;;;;15.43;5.63;;;-2.40;99.90;;;;;;5083548;28;20431;-74
2023/04/05 05:29:10;;;;;;;7.53;4.80;;;-2.40;99.90;;;;;;5084868;28;20837;-75
2023/04/05 05:31:36;;;;;;;12.53;4.37;;;-2.40;99.90;;;;;;5066522;28;20209;-75
2023/04/05 05:34:01;;;;;;;10.60;5.20;;;-2.30;99.90;;;;;;5085740;28;20648;-74
2023/04/05 05:36:27;;;;;;;12.60;6.30;;;-2.30;99.90;;;;;;5068255;28;20689;-74
2023/04/05 05:38:53;;;;;;;12.00;5.27;;;-2.30;99.90;;;;;;5067801;28;20173;-74
2023/04/05 05:41:20;;;;;;;9.60;4.70;;;-2.20;99.90;;;;;;5065630;28;20568;-74
2023/04/05 05:43:46;;;;;;;9.70;4.27;;;-2.10;99.90;;;;;;5067325;28;20526;-75
2023/04/05 05:46:11;;;;;;;18.50;5.60;;;-2.10;99.90;;;;;;5082090;28;21010;-74
2023/04/05 05:48:37;;;;;;;15.63;5.40;;;-2.00;99.90;;;;;;5068484;28;20264;-77
2023/04/05 05:51:08;;;;;;;10.57;4.87;;;-2.00;99.90;;;;;;5066136;28;20287;-74
2023/04/05 05:53:37;;;;;;;11.50;4.83;;;-1.90;99.90;;;;;;5065817;28;20587;-74
2023/04/05 05:56:05;;;;;;;12.00;4.30;;;-1.80;99.90;;;;;;5065444;28;20487;-73
2023/04/05 05:58:31;;;;;;;14.80;6.03;;;-1.80;99.90;;;;;;5066869;28;20578;-74
2023/04/05 06:00:58;;;;;;;23.53;7.07;;;-1.70;99.90;;;;;;5065045;28;20432;-74
2023/04/05 06:03:28;;;;;;;18.83;6.83;;;-1.70;99.90;;;;;;5067352;28;20450;-76
2023/04/05 06:05:55;;;;;;;11.77;5.80;;;-1.60;99.90;;;;;;5069993;28;20451;-76
2023/04/05 06:08:22;;;;;;;14.63;7.10;;;-1.50;99.90;;;;;;5063335;28;20514;-76
2023/04/05 06:10:49;;;;;;;11.97;6.60;;;-1.50;99.90;;;;;;5075050;28;20858;-75
2023/04/05 06:13:15;;;;;;;15.70;7.50;;;-1.40;99.90;;;;;;5066339;28;20526;-74
2023/04/05 06:15:44;;;;;;;16.40;7.20;;;-1.40;99.90;;;;;;5065996;28;20412;-75
2023/04/05 06:18:10;;;;;;;10.67;7.43;;;-1.30;99.90;;;;;;5083905;28;20420;-76
2023/04/05 06:20:39;;;;;;;16.60;6.70;;;-1.20;99.90;;;;;;5064934;28;20961;-76
2023/04/05 06:23:08;;;;;;;15.27;6.83;;;-1.10;99.90;;;;;;5060867;28;20236;-74
2023/04/05 06:25:34;;;;;;;13.77;5.87;;;-1.10;99.90;;;;;;5065362;28;20419;-75
2023/04/05 06:28:02;;;;;;;10.70;5.60;;;-1.00;99.90;;;;;;5066578;28;20775;-75
2023/04/05 06:30:27;;;;;;;21.10;6.20;;;-1.00;99.90;;;;;;5066641;28;20419;-75
2023/04/05 06:32:53;;;;;;;11.20;5.80;;;-0.90;99.90;;;;;;5065539;28;20985;-76
2023/04/05 06:35:23;;;;;;;6.20;3.33;;;-0.80;99.90;;;;;;5066899;28;20187;-76
2023/04/05 06:37:49;;;;;;;13.90;4.00;;;-0.70;99.90;;;;;;5065202;28;20426;-78
2023/04/05 06:40:15;;;;;;;9.23;3.70;;;-0.60;99.90;;;;;;5064979;28;20423;-77
2023/04/05 06:42:42;;;;;;;8.50;4.00;;;-0.40;99.90;;;;;;5067324;28;20649;-76
2023/04/05 06:45:08;;;;;;;7.80;4.40;;;-0.20;99.90;;;;;;5082842;28;20434;-76
2023/04/05 06:47:35;;;;;;;13.57;4.60;;;-0.10;99.90;;;;;;5064399;28;20438;-76
2023/04/05 06:50:01;;;;;;;7.47;3.87;;;0.10;99.80;;;;;;5083137;28;20428;-75
2023/04/05 06:52:27;;;;;;;10.40;3.80;;;0.40;99.10;;;;;;5067163;28;20475;-78
2023/04/05 06:54:53;;;;;;;9.67;4.97;;;0.60;98.60;;;;;;5063362;28;20518;-78
2023/04/05 06:57:19;;;;;;;13.53;4.00;;;0.80;98.40;;;;;;5067788;28;20839;-78
2023/04/05 06:59:45;;;;;;;7.23;4.10;;;0.90;98.30;;;;;;5068381;28;20181;-75
2023/04/05 07:02:11;;;;;;;8.13;3.53;;;0.90;98.00;;;;;;5067364;28;20200;-75
2023/04/05 07:04:37;;;;;;;6.63;4.13;;;1.00;97.10;;;;;;5070304;28;20429;-76
2023/04/05 07:07:04;;;;;;;8.40;4.50;;;1.10;96.10;;;;;;5073817;28;20235;-74
2023/04/05 07:09:31;;;;;;;5.70;3.40;;;1.10;95.50;;;;;;5076357;28;20423;-76
2023/04/05 07:11:58;;;;;;;7.20;4.03;;;1.30;95.40;;;;;;5107968;28;20542;-83
2023/04/05 07:14:24;;;;;;;10.97;4.30;;;1.50;95.50;;;;;;5092277;28;20414;-81
2023/04/05 07:16:51;;;;;;;9.50;3.87;;;1.80;95.30;;;;;;5093214;28;20451;-83
2023/04/05 07:19:17;;;;;;;16.80;3.97;;;2.20;94.90;;;;;;5108812;28;20251;-80
2023/04/05 07:21:43;;;;;;;4.47;3.07;;;2.60;94.00;;;;;;5089491;28;20458;-83
2023/04/05 07:24:09;;;;;;;4.53;3.10;;;3.10;93.70;;;;;;5077867;28;20460;-75
2023/04/05 07:26:36;;;;;;;9.53;4.57;;;3.40;92.80;;;;;;5065915;28;20181;-73
2023/04/05 07:29:03;;;;;;;6.60;3.57;;;4.40;91.30;;;;;;5065229;28;20555;-74
2023/04/05 07:31:28;;;;;;;7.00;3.13;;;5.60;89.80;;;;;;5080627;28;20489;-71
2023/04/05 07:33:54;;;;;;;6.43;3.87;;;6.50;84.80;;;;;;5067313;28;20423;-74
2023/04/05 07:36:20;;;;;;;6.87;3.10;;;6.60;84.00;;;;;;5081983;28;20431;-75
2023/04/05 07:38:46;;;;;;;6.20;3.10;;;7.40;80.40;;;;;;5065228;28;20280;-76
2023/04/05 07:41:11;;;;;;;8.70;2.77;;;7.80;78.20;;;;;;5066574;28;20217;-74
2023/04/05 07:43:37;;;;;;;6.70;3.90;;;8.90;73.60;;;;;;5066471;28;20545;-75
2023/04/05 07:46:03;;;;;;;6.00;3.20;;;9.60;70.90;;;;;;5081985;28;20607;-75
2023/04/05 07:48:29;;;;;;;7.00;2.67;;;9.90;67.80;;;;;;5062926;28;20230;-74
2023/04/05 07:50:55;;;;;;;8.93;2.83;;;9.00;67.70;;;;;;5066440;28;20474;-75
2023/04/05 07:53:20;;;;;;;15.87;3.13;;;8.20;69.60;;;;;;5065730;28;20840;-74
2023/04/05 07:55:46;;;;;;;5.10;2.57;;;8.30;69.50;;;;;;5081704;28;20207;-74
2023/04/05 07:58:13;;;;;;;5.57;3.33;;;8.60;71.30;;;;;;5067088;28;20230;-78
2023/04/05 08:00:38;;;;;;;5.83;2.50;;;9.60;68.30;;;;;;5066521;28;20431;-78
2023/04/05 08:03:04;;;;;;;4.80;2.43;;;9.90;65.70;;;;;;5065794;28;20443;-74
2023/04/05 08:05:30;;;;;;;11.50;3.67;;;9.20;64.90;;;;;;5065194;28;20178;-75
2023/04/05 08:07:56;;;;;;;6.53;2.33;;;9.90;64.00;;;;;;5065694;28;20204;-75
2023/04/05 08:10:23;;;;;;;5.60;3.23;;;10.10;61.70;;;;;;5068103;28;20184;-75
2023/04/05 08:12:49;;;;;;;5.30;2.63;;;10.00;59.10;;;;;;5068594;28;20463;-77
2023/04/05 08:15:14;;;;;;;4.80;2.40;;;10.20;61.30;;;;;;5069193;28;20459;-74
2023/04/05 08:17:40;;;;;;;13.30;2.83;;;10.50;60.50;;;;;;5068168;28;20177;-75
2023/04/05 08:20:06;;;;;;;4.17;2.50;;;10.50;59.50;;;;;;5070211;28;20276;-76
2023/04/05 08:22:32;;;;;;;7.30;2.93;;;10.00;59.90;;;;;;5068478;28;20216;-76
2023/04/05 08:24:57;;;;;;;5.70;1.97;;;10.40;59.20;;;;;;5068189;28;20423;-76
2023/04/05 08:27:23;;;;;;;6.70;2.87;;;10.70;57.30;;;;;;5069038;28;20668;-76
2023/04/05 08:29:49;;;;;;;8.10;3.17;;;10.60;58.40;;;;;;5070015;28;20185;-76
2023/04/05 08:32:15;;;;;;;3.67;2.40;;;11.10;55.60;;;;;;5068271;28;20652;-76
2023/04/05 08:34:40;;;;;;;4.17;2.30;;;10.70;54.80;;;;;;5083413;28;20212;-76
2023/04/05 08:37:06;;;;;;;5.13;2.30;;;11.00;55.70;;;;;;5069908;28;20625;-78
2023/04/05 08:39:34;;;;;;;3.37;1.73;;;10.60;54.60;;;;;;5068704;28;20661;-76
2023/04/05 08:42:12;;;;;;;3.73;2.40;;;10.50;56.30;;;;;;5083811;28;20599;-78
2023/04/05 08:44:40;;;;;;;6.33;2.30;;;10.30;56.80;;;;;;5068707;28;20841;-75
2023/04/05 08:47:09;;;;;;;8.60;2.10;;;10.70;55.40;;;;;;5068564;28;20868;-76
2023/04/05 08:49:34;;;;;;;9.80;3.27;;;10.60;55.80;;;;;;5068657;28;20430;-78
2023/04/05 08:52:01;;;;;;;6.97;3.13;;;10.30;56.50;;;;;;5067800;28;20435;-76
2023/04/05 08:54:27;;;;;;;4.83;2.70;;;11.10;55.50;;;;;;5067684;28;20169;-76
2023/04/05 08:56:53;;;;;;;5.77;2.40;;;10.70;56.40;;;;;;5069474;28;20914;-76
2023/04/05 08:59:19;;;;;;;5.33;2.40;;;11.10;56.60;;;;;;5068873;28;20185;-75
2023/04/05 09:01:47;;;;;;;2.50;1.63;;;11.60;54.40;;;;;;5065752;28;20474;-78
2023/04/05 09:04:18;;;;;;;4.90;2.30;;;11.60;52.90;;;;;;5068067;28;20438;-77
2023/04/05 09:06:44;;;;;;;3.70;2.27;;;10.50;53.30;;;;;;5068494;28;20426;-76
2023/04/05 09:09:10;;;;;;;4.40;2.10;;;10.50;53.80;;;;;;5067916;28;20510;-75
2023/04/05 09:11:37;;;;;;;2.60;1.80;;;11.00;53.80;;;;;;5068277;28;20530;-75
2023/04/05 09:14:04;;;;;;;5.43;2.40;;;10.80;52.40;;;;;;5085422;28;20226;-75
2023/04/05 09:16:37;;;;;;;3.50;1.90;;;10.40;52.80;;;;;;5088085;28;20400;-78
2023/04/05 09:19:03;;;;;;;3.73;2.10;;;10.20;54.60;;;;;;5093268;28;20423;-80
2023/04/05 09:21:28;;;;;;;4.20;2.00;;;10.00;55.90;;;;;;5086934;28;20470;-74
2023/04/05 09:23:54;;;;;;;5.07;2.17;;;10.00;55.20;;;;;;5067279;28;20173;-78
2023/04/05 09:26:24;;;;;;;4.10;1.97;;;10.20;53.80;;;;;;5069239;28;20184;-78
2023/04/05 09:28:51;;;;;;;6.30;2.70;;;10.00;56.60;;;;;;5084610;28;20416;-78
2023/04/05 09:31:30;;;;;;;8.50;2.80;;;10.10;55.60;;;;;;5066274;28;20485;-78
2023/04/05 09:34:01;;;;;;;6.30;2.57;;;9.60;57.50;;;;;;5067533;28;20419;-75
2023/04/05 09:36:27;;;;;;;11.63;2.80;;;9.80;56.50;;;;;;5067002;28;20484;-76
2023/04/05 09:39:02;;;;;;;5.03;2.13;;;9.60;57.20;;;;;;5068458;28;20427;-76
2023/04/05 09:41:28;;;;;;;2.93;1.70;;;9.40;57.50;;;;;;5063932;28;20217;-76
2023/04/05 09:43:53;;;;;;;6.50;2.17;;;9.70;56.00;;;;;;5068195;28;20475;-76
2023/04/05 09:46:38;;;;;;;3.57;2.30;;;9.80;54.40;;;;;;5066755;28;20267;-76
2023/04/05 09:49:05;;;;;;;2.50;2.00;;;9.60;55.30;;;;;;5068801;28;20595;-76
2023/04/05 09:51:37;;;;;;;4.90;2.87;;;9.60;54.10;;;;;;5065153;28;20525;-76
2023/04/05 09:54:10;;;;;;;6.97;2.23;;;9.00;55.40;;;;;;5067814;28;20523;-75
2023/04/05 09:56:38;;;;;;;4.90;2.43;;;9.20;53.80;;;;;;5068069;28;20470;-76
2023/04/05 09:59:11;;;;;;;6.53;2.93;;;8.40;56.90;;;;;;5083502;28;20432;-76
2023/04/05 10:01:41;;;;;;;3.83;2.13;;;8.50;56.70;;;;;;5067256;28;20489;-75
2023/04/05 10:04:07;;;;;;;4.67;1.70;;;8.40;57.70;;;;;;5067109;28;20966;-75
2023/04/05 10:06:41;;;;;;;3.80;2.00;;;8.20;57.70;;;;;;5067642;28;20463;-74
2023/04/05 10:09:08;;;;;;;3.63;2.20;;;8.00;57.50;;;;;;5067528;28;20567;-74
2023/04/05 10:11:36;;;;;;;5.30;2.50;;;7.90;58.30;;;;;;5066801;28;20476;-76
2023/04/05 10:14:03;;;;;;;10.50;3.17;;;7.60;56.90;;;;;;5067827;28;20419;-76
2023/04/05 10:16:35;;;;;;;8.07;2.33;;;7.70;57.70;;;;;;5066065;28;20428;-75
2023/04/05 10:19:04;;;;;;;5.80;3.07;;;7.90;58.00;;;;;;5067652;28;20411;-76
2023/04/05 10:21:34;;;;;;;4.17;2.10;;;8.00;58.20;;;;;;5066589;28;20986;-75
2023/04/05 10:24:09;;;;;;;3.80;2.10;;;8.00;59.90;;;;;;5064971;28;20422;-76
2023/04/05 10:27:07;;;;;;;8.13;2.30;;;8.20;57.50;;;;;;5066257;28;20480;-78
2023/04/05 10:29:49;;;;;;;3.43;2.03;;;8.20;57.40;;;;;;5055833;28;20430;-75
2023/04/05 10:32:41;;;;;;;4.60;2.23;;;8.00;57.50;;;;;;5065871;28;20455;-75
2023/04/05 10:35:32;;;;;;;5.47;2.40;;;8.10;58.50;;;;;;5068058;28;20512;-75
2023/04/05 10:38:20;;;;;;;9.93;2.20;;;8.20;57.80;;;;;;5060102;28;20423;-74
2023/04/05 10:40:49;;;;;;;6.47;2.60;;;8.20;57.00;;;;;;5066776;28;20949;-75
2023/04/05 10:43:20;;;;;;;7.30;2.00;;;8.10;58.20;;;;;;5065963;28;20445;-76
2023/04/05 10:45:48;;;;;;;3.53;2.00;;;8.00;59.00;;;;;;5072932;28;20415;-77
2023/04/05 10:48:32;;;;;;;4.00;1.97;;;8.10;56.70;;;;;;5082652;28;20816;-75
2023/04/05 10:50:59;;;;;;;10.93;2.33;;;7.80;58.70;;;;;;5065079;28;20999;-75
2023/04/05 10:53:25;;;;;;;4.90;2.47;;;7.80;57.80;;;;;;5064029;28;20487;-75
2023/04/05 10:55:52;;;;;;;3.47;2.40;;;7.90;59.70;;;;;;5069122;28;20419;-76
2023/04/05 10:58:18;;;;;;;4.20;2.00;;;8.20;59.50;;;;;;5066743;28;20428;-75
2023/04/05 11:00:46;;;;;;;5.43;2.53;;;8.40;57.30;;;;;;5069068;28;20434;-75
2023/04/05 11:03:40;;;;;;;4.00;2.07;;;8.40;59.00;;;;;;5068583;28;20529;-77
2023/04/05 11:06:28;;;;;;;4.53;2.40;;;8.50;58.90;;;;;;5069663;28;20420;-75
2023/04/05 11:09:21;;;;;;;3.43;1.93;;;8.80;58.50;;;;;;5070832;28;20906;-75
2023/04/05 11:11:49;;;;;;;11.80;2.17;;;8.60;57.70;;;;;;5071149;28;20527;-75
2023/04/05 11:14:27;;;;;;;6.93;2.60;;;8.70;57.40;;;;;;5088750;28;20443;-80
2023/04/05 11:16:58;;;;;;;5.50;2.20;;;8.70;55.70;;;;;;5093190;28;20460;-80
2023/04/05 11:19:42;;;;;;;6.50;2.33;;;8.70;55.00;;;;;;5092755;28;20445;-81
2023/04/05 11:22:12;;;;;;;7.77;2.77;;;8.50;56.60;;;;;;5088660;28;20470;-75
2023/04/05 11:24:56;;;;;;;5.00;2.50;;;8.70;55.00;;;;;;5092508;28;20416;-79
2023/04/05 11:27:29;;;;;;;4.90;2.67;;;8.60;54.60;;;;;;5072671;28;20941;-74
2023/04/05 11:29:56;;;;;;;4.80;2.70;;;8.60;56.30;;;;;;5067653;28;20427;-74
2023/04/05 11:32:22;;;;;;;3.47;2.33;;;8.70;54.20;;;;;;5064497;28;20538;-74
2023/04/05 11:35:00;;;;;;;4.37;2.13;;;8.50;54.50;;;;;;5084317;28;21010;-75
2023/04/05 11:37:54;;;;;;;5.43;3.10;;;8.40;55.50;;;;;;5065410;28;20415;-75
2023/04/05 11:40:33;;;;;;;4.70;2.20;;;8.60;55.50;;;;;;5069304;28;20407;-75
2023/04/05 11:42:59;;;;;;;4.20;2.87;;;8.80;54.70;;;;;;5069862;28;20526;-77
2023/04/05 11:45:25;;;;;;;5.83;2.63;;;8.80;53.70;;;;;;5071588;28;20494;-75
2023/04/05 11:47:51;;;;;;;3.00;2.10;;;8.60;55.60;;;;;;5072017;28;20270;-74
2023/04/05 11:50:16;;;;;;;3.30;2.23;;;8.60;57.00;;;;;;5074010;28;20830;-75
2023/04/05 11:52:42;;;;;;;4.23;2.73;;;8.80;56.90;;;;;;5071449;28;20197;-76
2023/04/05 11:55:08;;;;;;;4.20;2.43;;;8.80;55.90;;;;;;5070335;28;20209;-74
2023/04/05 11:57:36;;;;;;;4.20;2.60;;;8.80;58.10;;;;;;5071757;28;20181;-74
2023/04/05 12:00:02;;;;;;;3.30;1.83;;;9.00;55.80;;;;;;5070848;28;20177;-74
2023/04/05 12:02:27;;;;;;;7.27;3.00;;;9.10;55.20;;;;;;5069753;28;20459;-75
2023/04/05 12:04:56;;;;;;;5.80;2.63;;;9.20;55.70;;;;;;5070169;28;20921;-76
2023/04/05 12:07:26;;;;;;;6.07;2.37;;;9.40;54.90;;;;;;5068093;28;20177;-75
2023/04/05 12:10:10;;;;;;;6.07;2.30;;;9.40;55.00;;;;;;5071814;28;20419;-75
2023/04/05 12:12:43;;;;;;;4.53;2.30;;;9.70;55.20;;;;;;5069791;28;20524;-75
2023/04/05 12:15:14;;;;;;;5.93;2.10;;;10.00;51.10;;;;;;5087007;28;20418;-75
2023/04/05 12:17:42;;;;;;;3.57;2.27;;;9.90;51.60;;;;;;5071640;28;20506;-75
2023/04/05 12:20:09;;;;;;;3.80;2.43;;;9.60;51.60;;;;;;5069106;28;20502;-75
2023/04/05 12:22:40;;;;;;;5.77;2.67;;;9.60;52.60;;;;;;5067354;28;20900;-74
2023/04/05 12:25:06;;;;;;;6.90;1.90;;;9.60;55.40;;;;;;5068359;28;20950;-73
2023/04/05 12:27:32;;;;;;;3.40;1.90;;;9.90;51.90;;;;;;5063919;28;20431;-77
2023/04/05 12:30:16;;;;;;;3.47;2.30;;;9.90;50.70;;;;;;5068075;28;20419;-77
2023/04/05 12:32:49;;;;;;;2.50;1.67;;;9.80;50.20;;;;;;5065724;28;20205;-75
2023/04/05 12:35:20;;;;;;;4.30;2.03;;;9.80;51.60;;;;;;5067245;28;20443;-77
2023/04/05 12:37:46;;;;;;;3.17;1.63;;;10.20;51.00;;;;;;5067282;28;20511;-75
2023/04/05 12:40:12;;;;;;;5.00;2.40;;;10.30;51.40;;;;;;5069834;28;20509;-74
2023/04/05 12:42:39;;;;;;;5.70;2.40;;;10.70;50.40;;;;;;5067517;28;20463;-75
2023/04/05 12:45:12;;;;;;;3.20;2.07;;;10.60;49.80;;;;;;5068304;28;20469;-74
2023/04/05 12:47:57;;;;;;;3.87;2.57;;;10.50;50.80;;;;;;5085778;28;20720;-76
2023/04/05 12:50:30;;;;;;;9.70;2.80;;;10.50;51.20;;;;;;5070359;28;20765;-76
2023/04/05 12:53:00;;;;;;;2.47;1.83;;;10.20;52.90;;;;;;5069562;28;20439;-75
2023/04/05 12:55:27;;;;;;;4.20;2.77;;;10.10;51.80;;;;;;5082962;28;21005;-75